Time;durP1;ratioP1;P1;durP2;ratioP2;P2;SDS_P1;SDS_P2;PMS_P1;PMS_P2;Temp;Humidity;BMP_temperature;BMP_pressure;BME280_temperature;BME280_humidity;BME280_pressure;Samples;Min_cycle;Max_cycle;Signal;HPM_P1;HPM_P2
2022/04/23 00:01:16;;;;;;;;;13.67;13.33;;;;;17.53;42.19;99430.34;5058906;28;45506;-72
2022/04/23 00:03:41;;;;;;;;;17.00;14.33;;;;;17.58;42.23;99447.75;5058329;28;45403;-71
2022/04/23 00:06:07;;;;;;;;;20.67;15.33;;;;;17.70;42.31;99469.28;5058410;28;45540;-71
2022/04/23 00:08:33;;;;;;;;;18.67;15.67;;;;;17.68;42.32;99455.28;5058808;28;45898;-71
2022/04/23 00:11:02;;;;;;;;;16.00;14.00;;;;;17.39;42.35;99412.47;5058423;28;46031;-72
2022/04/23 00:13:28;;;;;;;;;15.25;12.75;;;;;17.62;42.46;99469.63;5058735;28;45515;-73
2022/04/23 00:15:53;;;;;;;;;14.33;13.33;;;;;17.54;42.54;99459.41;5058873;28;45382;-76
2022/04/23 00:18:19;;;;;;;;;21.00;16.33;;;;;17.35;42.74;99421.50;5059400;28;45251;-73
2022/04/23 00:20:46;;;;;;;;;14.00;13.75;;;;;17.14;42.76;99395.13;5073856;28;48093;-72
2022/04/23 00:23:13;;;;;;;;;14.00;14.00;;;;;17.56;42.54;99454.06;5058422;28;45497;-71
2022/04/23 00:25:39;;;;;;;;;18.33;15.00;;;;;17.49;42.61;99455.28;5058529;28;45827;-72
2022/04/23 00:28:06;;;;;;;;;21.00;18.67;;;;;17.32;42.78;99438.41;5059674;28;45506;-72
2022/04/23 00:30:33;;;;;;;;;15.00;13.25;;;;;17.33;42.76;99441.91;5057868;28;47254;-72
2022/04/23 00:33:03;;;;;;;;;21.33;18.00;;;;;17.17;42.83;99417.91;5058141;28;45369;-72
2022/04/23 00:35:29;;;;;;;;;16.25;16.25;;;;;17.24;42.90;99431.72;5061835;28;46266;-72
2022/04/23 00:37:56;;;;;;;;;19.00;15.67;;;;;17.30;43.07;99444.69;5077634;27;45377;-72
2022/04/23 00:40:24;;;;;;;;;21.00;16.25;;;;;17.18;43.02;99435.53;5062589;28;46254;-73
2022/04/23 00:42:52;;;;;;;;;14.75;14.25;;;;;17.08;43.55;99429.78;5079640;27;45366;-73
2022/04/23 00:45:21;;;;;;;;;14.75;13.00;;;;;17.00;43.67;99425.78;5062813;28;45440;-71
2022/04/23 00:47:48;;;;;;;;;17.25;15.00;;;;;17.07;43.83;99429.88;5060624;28;45421;-72
2022/04/23 00:50:14;;;;;;;;;20.00;18.00;;;;;17.04;43.70;99425.56;5057755;28;45744;-73
2022/04/23 00:52:40;;;;;;;;;20.25;15.25;;;;;17.05;43.63;99424.63;5063592;28;45315;-72
2022/04/23 00:55:08;;;;;;;;;15.25;14.75;;;;;17.11;43.41;99416.44;5064958;28;45193;-74
2022/04/23 00:57:35;;;;;;;;;14.75;14.75;;;;;17.16;43.76;99421.50;5062414;28;45386;-73
2022/04/23 01:00:06;;;;;;;;;16.75;14.00;;;;;17.17;43.62;99417.91;5076175;27;48301;-76
2022/04/23 01:02:32;;;;;;;;;14.25;13.50;;;;;17.14;43.45;99394.25;5062602;28;45424;-76
2022/04/23 01:04:58;;;;;;;;;18.50;18.00;;;;;16.95;43.37;99368.66;5062437;28;45584;-76
2022/04/23 01:07:23;;;;;;;;;14.75;14.75;;;;;17.06;43.99;99399.03;5060437;28;45467;-76
2022/04/23 01:09:51;;;;;;;;;25.75;18.75;;;;;17.09;43.65;99398.91;5060749;28;46177;-79
2022/04/23 01:12:18;;;;;;;;;20.50;17.75;;;;;16.90;43.36;99365.38;5060497;28;45408;-76
2022/04/23 01:15:09;;;;;;;;;18.25;17.50;;;;;17.01;43.71;99399.25;5076048;27;45326;-76
2022/04/23 01:17:35;;;;;;;;;20.75;17.75;;;;;16.80;44.14;99372.00;5059040;28;45444;-73
2022/04/23 01:20:10;;;;;;;;;19.00;16.00;;;;;16.87;44.09;99405.19;5058249;28;46310;-74
2022/04/23 01:22:37;;;;;;;;;22.00;19.00;;;;;16.65;44.04;99376.16;5061562;28;45410;-72
2022/04/23 01:25:10;;;;;;;;;17.50;16.75;;;;;16.51;44.75;99371.50;5062547;28;45330;-77
2022/04/23 01:27:41;;;;;;;;;20.50;16.50;;;;;16.56;44.58;99387.13;5076448;27;45495;-71
2022/04/23 01:30:10;;;;;;;;;16.00;14.00;;;;;16.46;44.16;99362.88;5059514;28;45537;-74
2022/04/23 01:32:36;;;;;;;;;19.50;19.00;;;;;16.63;44.32;99385.06;5057802;28;45526;-76
2022/04/23 01:35:03;;;;;;;;;20.00;17.00;;;;;16.50;44.27;99358.34;5057504;27;45476;-76
2022/04/23 01:37:29;;;;;;;;;20.25;17.00;;;;;16.56;44.47;99360.69;5057439;28;45315;-73
2022/04/23 01:39:54;;;;;;;;;19.75;17.25;;;;;16.77;44.14;99390.59;5057412;28;45487;-78
2022/04/23 01:42:20;;;;;;;;;15.75;14.50;;;;;16.52;44.12;99348.56;5057534;28;45380;-76
2022/04/23 01:44:51;;;;;;;;;20.50;16.50;;;;;16.85;44.16;99390.31;5057492;28;45367;-78
2022/04/23 01:47:18;;;;;;;;;17.00;14.50;;;;;16.65;43.94;99347.06;5055891;28;45398;-76
2022/04/23 01:49:44;;;;;;;;;14.25;14.25;;;;;16.82;44.00;99369.28;5057138;28;45286;-72
2022/04/23 01:52:14;;;;;;;;;15.25;12.75;;;;;16.99;43.62;99384.38;5056242;28;45404;-75
2022/04/23 01:54:39;;;;;;;;;17.75;16.50;;;;;16.97;43.75;99375.69;5057584;28;45189;-72
2022/04/23 01:57:05;;;;;;;;;19.50;19.00;;;;;16.74;43.25;99324.66;5057316;28;45355;-75
2022/04/23 01:59:31;;;;;;;;;20.00;17.75;;;;;17.10;43.33;99382.09;5057367;28;46515;-74
2022/04/23 02:01:58;;;;;;;;;19.75;17.00;;;;;17.12;43.58;99381.09;5055854;28;45434;-75
2022/04/23 02:04:25;;;;;;;;;19.75;17.75;;;;;17.01;43.74;99358.72;5057343;28;45286;-75
2022/04/23 02:06:51;;;;;;;;;18.25;16.00;;;;;17.07;43.67;99377.81;5057890;28;45437;-72
2022/04/23 02:09:17;;;;;;;;;14.50;14.50;;;;;17.02;44.06;99373.66;5057717;28;46167;-73
2022/04/23 02:11:43;;;;;;;;;23.00;20.00;;;;;16.97;43.77;99368.59;5061243;28;45394;-72
2022/04/23 02:14:09;;;;;;;;;22.25;16.00;;;;;16.94;43.71;99376.66;5061887;28;45429;-72
2022/04/23 02:16:35;;;;;;;;;18.25;14.50;;;;;16.57;44.19;99306.91;5062023;28;45354;-72
2022/04/23 02:19:03;;;;;;;;;16.50;14.25;;;;;16.16;44.33;99237.44;5059919;28;45487;-72
2022/04/23 02:21:30;;;;;;;;;18.75;17.75;;;;;16.25;43.70;99245.81;5057654;28;45370;-71
2022/04/23 02:23:56;;;;;;;;;19.50;17.75;;;;;17.02;43.73;99360.44;5056878;27;45286;-73
2022/04/23 02:26:23;;;;;;;;;12.25;12.25;;;;;17.00;43.72;99359.66;5055834;28;45367;-72
2022/04/23 02:28:52;;;;;;;;;17.00;16.75;;;;;17.04;43.68;99367.38;5056804;28;45440;-75
2022/04/23 02:31:18;;;;;;;;;19.50;14.50;;;;;16.98;43.51;99362.34;5056409;28;45438;-74
2022/04/23 02:33:44;;;;;;;;;20.25;18.25;;;;;16.83;43.66;99342.78;5056582;28;45394;-72
2022/04/23 02:36:11;;;;;;;;;23.00;18.75;;;;;16.70;43.91;99329.25;5056387;28;45525;-74
2022/04/23 02:38:40;;;;;;;;;14.75;14.75;;;;;16.85;44.09;99361.22;5057301;28;45928;-73
2022/04/23 02:41:06;;;;;;;;;23.75;19.50;;;;;16.69;44.19;99347.81;5059988;28;45436;-75
2022/04/23 02:43:35;;;;;;;;;20.75;20.50;;;;;16.66;44.42;99351.44;5061062;28;45388;-71
2022/04/23 02:46:07;;;;;;;;;20.25;18.75;;;;;16.60;44.41;99353.50;5060556;28;45561;-72
2022/04/23 02:48:33;;;;;;;;;21.25;18.50;;;;;16.22;44.50;99290.84;5059803;27;45471;-72
2022/04/23 02:51:00;;;;;;;;;24.00;20.75;;;;;16.38;44.34;99325.38;5058839;28;45469;-72
2022/04/23 02:53:27;;;;;;;;;21.00;17.00;;;;;16.45;44.53;99333.91;5059777;28;45362;-72
2022/04/23 02:55:56;;;;;;;;;20.75;17.75;;;;;16.30;44.44;99314.28;5059911;28;45231;-71
2022/04/23 02:58:27;;;;;;;;;26.75;22.25;;;;;16.50;44.80;99345.97;5059470;28;46137;-74
2022/04/23 03:00:53;;;;;;;;;19.25;17.75;;;;;16.18;44.62;99291.91;5059524;28;45318;-74
2022/04/23 03:03:19;;;;;;;;;20.50;17.75;;;;;16.44;44.96;99340.09;5060700;28;45416;-73
2022/04/23 03:05:45;;;;;;;;;22.25;16.75;;;;;16.14;44.86;99300.06;5060356;28;45377;-72
2022/04/23 03:08:12;;;;;;;;;16.75;16.25;;;;;16.22;44.68;99321.69;5059748;28;45500;-74
2022/04/23 03:10:39;;;;;;;;;17.25;17.25;;;;;16.24;44.96;99331.28;5059518;28;45483;-74
2022/04/23 03:13:07;;;;;;;;;19.50;18.00;;;;;15.80;44.92;99240.75;5059614;28;45376;-73
2022/04/23 03:15:34;;;;;;;;;20.00;19.25;;;;;16.33;45.09;99328.22;5059753;28;45513;-71
2022/04/23 03:18:04;;;;;;;;;17.25;14.00;;;;;16.29;44.82;99315.22;5059236;28;46637;-72
2022/04/23 03:20:30;;;;;;;;;18.50;16.25;;;;;16.39;44.93;99328.88;5059636;27;45227;-71
2022/04/23 03:22:56;;;;;;;;;19.75;18.00;;;;;16.04;44.53;99279.31;5058064;28;45338;-72
2022/04/23 03:25:22;;;;;;;;;20.75;18.75;;;;;16.30;44.87;99328.38;5059715;27;45369;-74
2022/04/23 03:27:48;;;;;;;;;20.50;17.50;;;;;15.71;45.28;99243.78;5058436;28;47519;-73
2022/04/23 03:30:14;;;;;;;;;16.50;16.25;;;;;16.25;45.14;99314.50;5060144;28;45841;-74
2022/04/23 03:32:39;;;;;;;;;20.25;16.75;;;;;16.21;45.31;99315.56;5059990;28;45350;-73
2022/04/23 03:35:05;;;;;;;;;20.50;18.75;;;;;16.11;45.23;99319.50;5075366;27;45399;-74
2022/04/23 03:37:31;;;;;;;;;20.75;17.25;;;;;16.02;45.45;99304.09;5074627;27;46849;-72
2022/04/23 03:39:57;;;;;;;;;22.50;18.00;;;;;15.99;45.64;99307.72;5058713;28;45588;-73
2022/04/23 03:42:23;;;;;;;;;19.75;18.75;;;;;15.86;45.59;99282.75;5059411;28;45525;-71
2022/04/23 03:44:48;;;;;;;;;19.00;18.75;;;;;15.74;44.96;99257.75;5059343;28;45355;-73
2022/04/23 03:47:15;;;;;;;;;16.75;15.50;;;;;15.81;45.22;99268.91;5058742;28;45544;-73
2022/04/23 03:49:41;;;;;;;;;26.75;20.25;;;;;15.65;45.65;99261.59;5058318;28;45484;-71
2022/04/23 03:52:10;;;;;;;;;18.75;16.50;;;;;15.81;46.02;99295.28;5058922;28;45488;-71
2022/04/23 03:54:35;;;;;;;;;19.00;17.50;;;;;15.83;45.52;99298.75;5059323;28;45331;-71
2022/04/23 03:57:01;;;;;;;;;24.00;19.75;;;;;15.75;45.92;99291.13;5058767;28;46102;-72
2022/04/23 03:59:30;;;;;;;;;24.50;21.50;;;;;15.38;46.05;99249.56;5058839;28;45222;-72
2022/04/23 04:01:56;;;;;;;;;19.25;18.25;;;;;15.61;46.20;99294.34;5058783;28;45488;-71
2022/04/23 04:04:22;;;;;;;;;14.00;12.50;;;;;15.54;46.22;99289.34;5058946;28;45437;-77
2022/04/23 04:06:48;;;;;;;;;22.50;18.00;;;;;14.97;46.26;99200.22;5058676;28;45475;-77
2022/04/23 04:09:14;;;;;;;;;20.50;17.25;;;;;15.50;46.57;99286.00;5058737;28;45565;-75
2022/04/23 04:14:24;;;;;;;;;24.50;23.75;;;;;15.39;47.18;99289.06;5058862;28;45555;-73
2022/04/23 04:16:50;;;;;;;;;20.75;17.75;;;;;15.23;47.51;99273.00;5058407;28;45384;-75
2022/04/23 04:19:16;;;;;;;;;23.25;19.25;;;;;15.29;46.91;99281.59;5057207;28;45457;-72
2022/04/23 04:21:43;;;;;;;;;24.00;20.50;;;;;15.26;46.80;99272.03;5058573;28;45451;-73
2022/04/23 04:24:15;;;;;;;;;21.25;18.25;;;;;15.27;47.46;99268.47;5058907;28;45408;-72
2022/04/23 04:26:43;;;;;;;;;20.25;17.75;;;;;15.31;47.27;99263.94;5058075;28;46142;-73
2022/04/23 04:29:09;;;;;;;;;16.75;15.75;;;;;15.43;46.53;99273.97;5058430;28;45319;-71
2022/04/23 04:31:51;;;;;;;;;20.75;17.75;;;;;15.25;46.89;99234.22;5058717;28;45355;-72
2022/04/23 04:34:30;;;;;;;;;17.00;16.25;;;;;15.53;47.03;99277.94;5058543;28;45397;-74
2022/04/23 04:37:04;;;;;;;;;23.75;19.75;;;;;15.57;46.75;99281.31;5073773;28;45525;-73
2022/04/23 04:39:30;;;;;;;;;18.75;18.75;;;;;15.41;47.11;99259.97;5058378;28;45390;-73
2022/04/23 04:41:56;;;;;;;;;19.25;18.25;;;;;15.48;47.04;99279.91;5057057;28;45671;-74
2022/04/23 04:44:22;;;;;;;;;18.75;15.25;;;;;15.45;46.93;99280.06;5058374;27;45401;-72
2022/04/23 04:46:48;;;;;;;;;15.25;15.25;;;;;15.34;46.70;99240.91;5058311;28;45504;-72
2022/04/23 04:49:14;;;;;;;;;13.00;10.50;;;;;15.57;46.79;99265.50;5058234;28;45252;-73
2022/04/23 04:51:39;;;;;;;;;21.25;17.50;;;;;15.65;46.43;99271.28;5058671;28;45406;-72
2022/04/23 04:54:06;;;;;;;;;19.25;19.25;;;;;15.67;46.27;99275.56;5059147;28;45481;-75
2022/04/23 04:56:32;;;;;;;;;19.50;18.25;;;;;15.44;46.41;99236.09;5058252;28;46159;-72
2022/04/23 04:58:58;;;;;;;;;21.50;18.75;;;;;15.58;46.03;99261.91;5062229;28;45388;-75
2022/04/23 05:01:24;;;;;;;;;25.50;21.25;;;;;15.22;46.25;99220.31;5057246;28;45262;-75
2022/04/23 05:03:51;;;;;;;;;22.50;19.75;;;;;15.49;46.46;99281.63;5058023;28;45333;-77
2022/04/23 05:06:17;;;;;;;;;23.00;19.50;;;;;15.17;46.94;99238.97;5057378;28;45647;-75
2022/04/23 05:08:43;;;;;;;;;22.50;19.75;;;;;15.39;46.58;99278.50;5057660;28;45472;-74
2022/04/23 05:11:10;;;;;;;;;25.25;20.50;;;;;15.36;47.10;99281.28;5057851;28;45578;-75
2022/04/23 05:13:37;;;;;;;;;21.50;20.00;;;;;15.25;47.39;99268.50;5057688;28;45453;-78
2022/04/23 05:16:06;;;;;;;;;27.75;19.75;;;;;15.35;46.80;99271.66;5057175;28;45560;-75
2022/04/23 05:18:32;;;;;;;;;24.75;20.00;;;;;15.39;46.62;99267.94;5057438;27;45519;-74
2022/04/23 05:20:58;;;;;;;;;26.00;22.25;;;;;15.38;46.93;99268.88;5059466;28;45164;-75
2022/04/23 05:23:24;;;;;;;;;21.25;18.75;;;;;15.40;46.96;99277.59;5060714;28;45233;-71
2022/04/23 05:25:49;;;;;;;;;17.75;16.75;;;;;15.40;47.05;99260.88;5068323;28;45107;-73
2022/04/23 05:28:15;;;;;;;;;19.00;18.00;;;;;15.43;46.87;99255.50;5069328;28;45325;-77
2022/04/23 05:30:41;;;;;;;;;23.25;19.75;;;;;15.52;46.56;99270.06;5058206;28;45326;-76
2022/04/23 05:33:07;;;;;;;;;26.25;19.50;;;;;15.46;46.42;99268.56;5057790;28;45576;-74
2022/04/23 05:35:33;;;;;;;;;21.00;17.25;;;;;15.30;46.77;99239.31;5057506;28;45467;-78
2022/04/23 05:37:58;;;;;;;;;21.50;18.25;;;;;15.25;46.64;99228.94;5057187;28;45345;-75
2022/04/23 05:40:24;;;;;;;;;26.25;23.25;;;;;15.41;46.74;99260.84;5057557;28;45386;-76
2022/04/23 05:42:50;;;;;;;;;30.75;23.25;;;;;15.38;46.81;99265.41;5057514;28;45500;-77
2022/04/23 05:45:15;;;;;;;;;26.50;22.25;;;;;15.33;46.82;99248.88;5057048;28;45369;-77
2022/04/23 05:47:41;;;;;;;;;27.00;18.25;;;;;15.26;46.62;99233.31;5058683;28;46027;-78
2022/04/23 05:50:11;;;;;;;;;21.75;20.00;;;;;15.30;46.70;99214.72;5058173;27;45445;-76
2022/04/23 05:52:39;;;;;;;;;18.25;16.75;;;;;15.60;46.86;99253.00;5055898;28;45539;-76
2022/04/23 05:55:06;;;;;;;;;17.25;16.75;;;;;15.67;46.25;99243.06;5055546;28;47619;-79
2022/04/23 05:57:32;;;;;;;;;20.50;19.25;;;;;15.80;46.35;99257.50;5057052;28;45286;-73
2022/04/23 05:59:58;;;;;;;;;22.50;20.00;;;;;15.76;46.25;99262.97;5055805;28;45434;-73
2022/04/23 06:02:24;;;;;;;;;31.75;26.00;;;;;15.60;46.34;99274.13;5057243;28;45772;-72
2022/04/23 06:04:49;;;;;;;;;25.75;24.00;;;;;15.48;46.58;99275.50;5056916;28;45493;-73
2022/04/23 06:07:19;;;;;;;;;22.50;21.75;;;;;15.35;47.15;99282.22;5055616;28;45359;-72
2022/04/23 06:09:45;;;;;;;;;24.75;23.00;;;;;15.17;47.21;99260.06;5059493;28;45495;-73
2022/04/23 06:12:11;;;;;;;;;19.50;17.75;;;;;15.13;47.35;99250.53;5060688;28;45409;-72
2022/04/23 06:14:40;;;;;;;;;24.50;19.50;;;;;15.24;47.50;99271.22;5060899;28;46096;-73
2022/04/23 06:17:11;;;;;;;;;30.00;22.25;;;;;15.16;47.81;99287.38;5060770;28;45528;-73
2022/04/23 06:19:37;;;;;;;;;27.75;25.25;;;;;15.05;47.99;99293.06;5061909;28;45213;-72
2022/04/23 06:22:04;;;;;;;;;28.75;24.25;;;;;14.69;47.87;99247.91;5061421;28;45623;-74
2022/04/23 06:24:30;;;;;;;;;19.00;17.50;;;;;14.65;47.92;99245.44;5061858;28;45440;-71
2022/04/23 06:26:56;;;;;;;;;28.25;24.25;;;;;14.62;48.06;99243.78;5062957;28;45362;-72
2022/04/23 06:29:21;;;;;;;;;25.00;24.00;;;;;14.90;48.27;99300.69;5062599;28;45417;-73
2022/04/23 06:31:47;;;;;;;;;26.50;22.75;;;;;14.66;48.28;99260.31;5062136;28;45294;-75
2022/04/23 06:34:13;;;;;;;;;29.75;22.75;;;;;14.78;48.46;99281.81;5063472;28;45911;-72
2022/04/23 06:36:40;;;;;;;;;23.75;20.00;;;;;14.89;48.89;99283.16;5063910;28;45273;-74
2022/04/23 06:39:06;;;;;;;;;25.50;23.75;;;;;14.91;48.14;99279.56;5064358;28;45960;-74
2022/04/23 06:41:35;;;;;;;;;24.50;24.00;;;;;15.01;48.53;99298.50;5064337;28;45328;-74
2022/04/23 06:44:01;;;;;;;;;22.25;17.25;;;;;15.01;48.73;99287.97;5063017;28;45507;-77
2022/04/23 06:46:27;;;;;;;;;22.00;19.25;;;;;15.01;48.32;99264.22;5063664;28;45418;-74
2022/04/23 06:48:52;;;;;;;;;20.25;17.75;;;;;14.96;47.76;99255.66;5081590;27;45528;-73
2022/04/23 06:51:18;;;;;;;;;34.75;28.50;;;;;15.12;48.56;99284.91;5062363;28;45659;-77
2022/04/23 06:53:44;;;;;;;;;29.75;28.00;;;;;14.88;49.05;99255.06;5062205;28;46221;-74
2022/04/23 06:56:10;;;;;;;;;29.25;24.75;;;;;15.02;48.98;99276.50;5063801;28;45337;-77
2022/04/23 06:58:36;;;;;;;;;27.00;25.25;;;;;14.91;48.36;99250.56;5061625;28;45366;-73
2022/04/23 07:01:01;;;;;;;;;31.50;27.25;;;;;14.80;48.75;99218.47;5064225;28;45384;-73
2022/04/23 07:03:28;;;;;;;;;27.25;24.25;;;;;14.95;48.76;99251.28;5064452;28;45294;-72
2022/04/23 07:05:54;;;;;;;;;27.25;22.75;;;;;15.14;48.48;99273.38;5066166;28;45511;-71
2022/04/23 07:08:21;;;;;;;;;27.50;22.75;;;;;14.80;48.87;99208.78;5062552;28;45451;-77
2022/04/23 07:10:48;;;;;;;;;29.25;25.50;;;;;15.25;48.40;99289.59;5061771;28;45177;-76
2022/04/23 07:13:15;;;;;;;;;30.25;27.25;;;;;15.23;48.93;99275.66;5061934;28;45450;-76
2022/04/23 07:15:41;;;;;;;;;30.50;25.50;;;;;15.16;48.87;99284.72;5060706;28;45285;-76
2022/04/23 07:18:07;;;;;;;;;25.75;22.00;;;;;14.95;49.04;99252.16;5060160;28;45176;-72
2022/04/23 07:20:33;;;;;;;;;29.00;26.75;;;;;14.98;48.97;99251.19;5060373;28;45448;-74
2022/04/23 07:25:43;;;;;;;;;26.50;24.75;;;;;14.98;49.00;99259.09;5059042;28;45603;-73
2022/04/23 07:28:08;;;;;;;;;28.00;27.50;;;;;14.82;49.34;99230.69;5059570;28;45465;-73
2022/04/23 07:30:35;;;;;;;;;31.00;26.50;;;;;15.03;49.57;99273.78;5059607;28;45502;-71
2022/04/23 07:33:02;;;;;;;;;33.00;29.50;;;;;15.04;49.95;99272.00;5059150;28;45494;-73
2022/04/23 07:38:21;;;;;;;;;32.25;27.50;;;;;15.08;49.45;99278.88;5059204;28;45495;-72
2022/04/23 07:40:49;;;;;;;;;29.75;26.00;;;;;14.95;49.83;99261.81;5059759;28;45613;-73
2022/04/23 07:43:15;;;;;;;;;31.75;28.50;;;;;15.13;49.74;99278.69;5059407;28;46733;-74
2022/04/23 07:45:46;;;;;;;;;31.25;29.75;;;;;15.17;49.32;99283.78;5057753;28;45243;-72
2022/04/23 07:48:13;;;;;;;;;24.50;23.75;;;;;15.24;49.24;99279.13;5059316;28;45405;-76
2022/04/23 07:50:41;;;;;;;;;32.25;25.75;;;;;15.26;49.11;99262.34;5057794;28;45318;-73
2022/04/23 07:53:09;;;;;;;;;28.50;26.50;;;;;15.31;49.38;99261.28;5074677;27;46484;-73
2022/04/23 07:55:39;;;;;;;;;26.75;24.75;;;;;15.47;48.82;99263.22;5076881;28;45356;-73
2022/04/23 07:58:05;;;;;;;;;29.00;20.75;;;;;15.35;49.41;99234.72;5058389;28;45370;-73
2022/04/23 08:00:34;;;;;;;;;22.75;20.50;;;;;15.61;48.88;99267.94;5059270;28;45437;-72
2022/04/23 08:03:02;;;;;;;;;28.75;23.50;;;;;15.73;48.84;99269.22;5057192;28;46847;-72
2022/04/23 08:05:32;;;;;;;;;34.50;29.25;;;;;15.71;48.50;99255.25;5058534;28;45353;-71
2022/04/23 08:07:58;;;;;;;;;35.25;29.25;;;;;15.78;48.08;99264.63;5058627;28;45294;-72
2022/04/23 08:10:24;;;;;;;;;32.50;27.75;;;;;15.78;48.30;99266.38;5058655;28;45394;-72
2022/04/23 08:12:50;;;;;;;;;30.25;26.50;;;;;15.76;48.54;99262.97;5058674;28;45619;-72
2022/04/23 08:15:16;;;;;;;;;33.75;30.75;;;;;15.81;48.63;99258.34;5058208;28;45421;-73
2022/04/23 08:17:42;;;;;;;;;34.75;29.50;;;;;15.86;48.52;99257.22;5058701;27;45469;-71
2022/04/23 08:20:08;;;;;;;;;30.25;28.50;;;;;15.72;48.33;99225.28;5058985;28;45377;-73
2022/04/23 08:22:35;;;;;;;;;30.50;25.25;;;;;15.91;48.18;99251.72;5058122;28;45539;-76
2022/04/23 08:25:01;;;;;;;;;32.50;27.25;;;;;15.63;48.35;99200.09;5058085;28;45350;-72
2022/04/23 08:27:27;;;;;;;;;29.50;26.25;;;;;15.94;48.28;99248.94;5058385;28;45474;-74
2022/04/23 08:32:37;;;;;;;;;25.25;25.00;;;;;15.95;48.32;99224.28;5061192;28;45419;-72
2022/04/23 08:35:07;;;;;;;;;33.00;28.75;;;;;15.98;48.53;99228.56;5062636;28;45250;-73
2022/04/23 08:37:34;;;;;;;;;32.50;27.75;;;;;16.16;48.10;99246.25;5059211;28;45359;-71
2022/04/23 08:40:00;;;;;;;;;34.75;31.00;;;;;15.98;48.50;99213.56;5058595;28;45551;-71
2022/04/23 08:42:26;;;;;;;;;36.25;33.00;;;;;16.13;48.60;99245.50;5058373;28;45413;-71
2022/04/23 08:44:54;;;;;;;;;33.50;31.50;;;;;16.10;48.58;99238.56;5058522;28;45805;-73
2022/04/23 08:47:25;;;;;;;;;29.00;26.00;;;;;16.14;48.81;99252.50;5058548;28;45350;-72
2022/04/23 08:49:57;;;;;;;;;32.00;27.25;;;;;15.73;49.01;99176.84;5058557;28;45333;-73
2022/04/23 08:52:34;;;;;;;;;31.50;30.25;;;;;16.18;48.89;99240.88;5057841;28;45503;-73
2022/04/23 08:55:01;;;;;;;;;38.00;28.75;;;;;16.26;48.53;99250.16;5057694;28;45322;-73
2022/04/23 08:57:28;;;;;;;;;29.00;28.50;;;;;16.25;48.96;99237.03;5057320;28;45523;-70
2022/04/23 08:59:56;;;;;;;;;34.50;29.75;;;;;16.25;49.14;99229.97;5058396;28;45981;-71
2022/04/23 09:02:23;;;;;;;;;28.50;23.50;;;;;16.33;48.85;99235.75;5056994;28;46588;-72
2022/04/23 09:04:49;;;;;;;;;29.00;27.25;;;;;16.52;48.51;99243.69;5058835;28;45352;-72
2022/04/23 09:07:21;;;;;;;;;33.75;27.50;;;;;16.50;48.41;99236.78;5058420;28;45226;-74
2022/04/23 09:09:55;;;;;;;;;33.00;27.25;;;;;16.45;48.71;99225.56;5057513;28;45176;-74
2022/04/23 09:12:25;;;;;;;;;27.50;25.75;;;;;16.39;48.55;99218.75;5057916;28;46051;-73
2022/04/23 09:23:39;;;;;;;;;28.00;25.75;;;;;16.70;48.52;99249.94;5058015;28;45346;-77
2022/04/23 09:23:40;;;;;;;;;33.75;28.25;;;;;16.81;48.12;99219.50;5057862;28;45732;-77
2022/04/23 09:26:20;;;;;;;;;34.50;32.50;;;;;16.96;48.33;99242.56;5059189;28;45382;-77
2022/04/23 09:28:52;;;;;;;;;34.25;28.75;;;;;16.86;48.14;99226.28;5057430;28;45299;-76
2022/04/23 09:31:17;;;;;;;;;28.00;25.50;;;;;17.12;47.93;99242.69;5073150;27;45409;-78
2022/04/23 09:33:52;;;;;;;;;39.25;33.00;;;;;17.23;47.91;99231.59;5057084;28;46172;-76
2022/04/23 09:36:19;;;;;;;;;30.25;27.50;;;;;17.33;47.60;99233.69;5057312;28;45546;-79
2022/04/23 09:38:59;;;;;;;;;40.25;31.25;;;;;17.43;47.36;99226.13;5058180;28;45546;-78
2022/04/23 09:41:32;;;;;;;;;32.75;29.00;;;;;17.42;46.96;99202.41;5058524;28;46117;-76
2022/04/23 09:44:09;;;;;;;;;29.00;26.00;;;;;17.55;46.98;99206.13;5058115;28;45821;-78
2022/04/23 09:46:48;;;;;;;;;32.25;29.00;;;;;17.77;46.77;99222.66;5057222;28;45458;-77
2022/04/23 09:49:21;;;;;;;;;28.75;25.50;;;;;17.94;46.02;99236.84;5057740;28;45368;-78
2022/04/23 09:52:03;;;;;;;;;32.50;30.25;;;;;17.96;46.11;99235.81;5057522;28;45444;-73
2022/04/23 09:54:30;;;;;;;;;25.25;24.25;;;;;17.99;46.27;99237.44;5072402;27;46746;-72
2022/04/23 09:56:56;;;;;;;;;29.00;26.75;;;;;17.86;46.16;99202.78;5055505;28;45550;-78
2022/04/23 09:59:23;;;;;;;;;30.25;28.00;;;;;18.07;46.16;99237.03;5072624;27;45468;-73
2022/04/23 10:01:50;;;;;;;;;29.50;29.00;;;;;17.98;46.16;99214.53;5055452;28;45441;-74
2022/04/23 10:04:26;;;;;;;;;28.00;26.75;;;;;18.12;46.01;99221.75;5056363;28;46666;-73
2022/04/23 10:06:54;;;;;;;;;28.25;28.25;;;;;18.33;45.65;99231.19;5073529;27;45352;-72
2022/04/23 10:09:26;;;;;;;;;33.25;28.50;;;;;18.28;45.55;99206.75;5057867;28;45423;-72
2022/04/23 10:12:09;;;;;;;;;26.00;23.25;;;;;18.21;45.58;99186.81;5059069;28;45417;-75
2022/04/23 10:15:00;;;;;;;;;27.50;23.25;;;;;18.26;45.53;99166.22;5057771;28;46373;-73
2022/04/23 10:17:28;;;;;;;;;31.00;26.25;;;;;18.53;45.18;99193.00;5066652;27;45757;-74
2022/04/23 10:19:59;;;;;;;;;26.50;26.50;;;;;18.72;44.71;99210.53;5058718;28;45495;-74
2022/04/23 10:22:37;;;;;;;;;27.00;24.50;;;;;18.59;44.89;99186.50;5059044;28;45559;-75
2022/04/23 10:25:24;;;;;;;;;22.00;19.33;;;;;18.98;44.72;99219.72;5057394;28;46145;-72
2022/04/23 10:27:55;;;;;;;;;24.33;20.33;;;;;19.18;44.59;99218.59;5058344;28;45472;-78
2022/04/23 10:30:21;;;;;;;;;26.25;25.50;;;;;19.31;44.58;99206.28;5058184;28;45445;-72
2022/04/23 10:32:47;;;;;;;;;24.75;22.00;;;;;19.39;44.36;99213.84;5058312;28;45300;-75
2022/04/23 10:35:19;;;;;;;;;25.00;22.33;;;;;19.47;44.02;99204.44;5057288;28;46379;-73
2022/04/23 10:37:49;;;;;;;;;20.33;20.00;;;;;19.65;43.86;99214.94;5072940;27;45502;-73
2022/04/23 10:40:17;;;;;;;;;26.33;22.67;;;;;19.47;43.64;99169.09;5058555;28;45646;-77
2022/04/23 10:43:15;;;;;;;;;25.67;25.33;;;;;19.76;43.71;99207.19;5057339;28;45511;-74
2022/04/23 10:45:41;;;;;;;;;31.67;25.33;;;;;19.63;43.49;99193.78;5056467;28;46021;-72
2022/04/23 10:48:24;;;;;;;;;26.33;23.33;;;;;19.76;43.44;99201.03;5057096;28;45313;-74
2022/04/23 10:51:10;;;;;;;;;25.33;22.00;;;;;19.96;43.14;99202.50;5056736;28;45339;-76
2022/04/23 10:53:40;;;;;;;;;19.67;18.00;;;;;20.14;43.08;99201.34;5056937;28;45287;-73
2022/04/23 10:56:13;;;;;;;;;19.33;19.00;;;;;20.27;41.94;99204.97;5056615;27;46416;-77
2022/04/23 10:58:40;;;;;;;;;18.33;16.67;;;;;20.32;41.42;99205.53;5056241;28;45292;-74
2022/04/23 11:01:28;;;;;;;;;16.33;14.67;;;;;20.35;41.37;99207.13;5059449;28;45432;-73
2022/04/23 11:04:07;;;;;;;;;21.67;18.33;;;;;20.10;41.06;99173.28;5060400;28;45274;-77
2022/04/23 11:12:53;;;;;;;;;13.33;12.00;;;;;20.25;40.57;99201.53;5060337;28;45299;-74
2022/04/23 11:15:19;;;;;;;;;14.33;12.00;;;;;20.33;40.64;99203.72;5060707;28;45313;-74
2022/04/23 11:17:55;;;;;;;;;18.33;15.33;;;;;20.46;40.17;99193.19;5060144;28;45398;-72
2022/04/23 11:20:36;;;;;;;;;14.33;12.33;;;;;20.60;40.37;99185.22;5059358;28;45217;-72
2022/04/23 11:23:04;;;;;;;;;16.33;12.00;;;;;20.28;39.24;99137.53;5059576;28;45452;-72
2022/04/23 11:25:30;;;;;;;;;11.33;11.33;;;;;20.54;39.57;99188.22;5059854;28;45308;-74
2022/04/23 11:28:01;;;;;;;;;12.67;10.67;;;;;20.38;39.10;99159.06;5059100;28;45292;-72
2022/04/23 11:30:29;;;;;;;;;11.33;10.00;;;;;20.50;38.69;99179.59;5059028;28;45381;-74
2022/04/23 11:32:57;;;;;;;;;12.33;10.67;;;;;20.51;39.10;99173.31;5059338;28;45393;-73
2022/04/23 11:35:29;;;;;;;;;11.67;9.33;;;;;20.70;39.19;99180.16;5075196;27;45354;-74
2022/04/23 11:37:55;;;;;;;;;10.33;9.33;;;;;20.91;39.01;99162.78;5059165;28;45302;-75
2022/04/23 11:40:24;;;;;;;;;9.67;9.33;;;;;21.12;38.66;99168.50;5059004;27;45298;-73
2022/04/23 11:42:49;;;;;;;;;11.00;8.33;;;;;20.98;37.58;99118.00;5059195;27;45346;-73
2022/04/23 11:45:17;;;;;;;;;13.00;13.00;;;;;21.18;37.83;99124.63;5061496;28;45424;-73